sensor_id;sensor_type;location;lat;lon;timestamp;temperature;humidity
1678;DHT22;6034;46.864;15.216;2022-12-10T07:16:55;4.20;99.90
1678;DHT22;6034;46.864;15.216;2022-12-10T07:19:22;4.30;99.90
1678;DHT22;6034;46.864;15.216;2022-12-10T07:21:49;4.30;99.90
1678;DHT22;6034;46.864;15.216;2022-12-10T07:24:17;4.20;99.90
1678;DHT22;6034;46.864;15.216;2022-12-10T07:26:46;4.20;99.90
1678;DHT22;6034;46.864;15.216;2022-12-10T07:29:13;4.20;99.90
1678;DHT22;6034;46.864;15.216;2022-12-10T07:31:40;4.30;99.90
1678;DHT22;6034;46.864;15.216;2022-12-10T07:34:09;4.20;99.90
1678;DHT22;6034;46.864;15.216;2022-12-10T07:36:36;4.30;99.90
1678;DHT22;6034;46.864;15.216;2022-12-10T07:39:04;4.20;99.90
1678;DHT22;6034;46.864;15.216;2022-12-10T07:41:32;4.20;99.90
1678;DHT22;6034;46.864;15.216;2022-12-10T07:43:59;4.20;99.90
1678;DHT22;6034;46.864;15.216;2022-12-10T07:46:27;4.20;99.90
1678;DHT22;6034;46.864;15.216;2022-12-10T07:48:54;4.20;99.90
1678;DHT22;6034;46.864;15.216;2022-12-10T07:51:22;4.20;99.90
1678;DHT22;6034;46.864;15.216;2022-12-10T07:53:51;4.30;99.90
1678;DHT22;6034;46.864;15.216;2022-12-10T07:56:18;4.30;99.90
1678;DHT22;6034;46.864;15.216;2022-12-10T07:58:46;4.30;99.90
1678;DHT22;6034;46.864;15.216;2022-12-10T08:01:15;4.20;99.90
1678;DHT22;6034;46.864;15.216;2022-12-10T08:03:42;4.20;99.90
1678;DHT22;6034;46.864;15.216;2022-12-10T08:06:10;4.20;99.90
1678;DHT22;6034;46.864;15.216;2022-12-10T08:08:40;4.30;99.90
1678;DHT22;6034;46.864;15.216;2022-12-10T08:11:07;4.30;99.90
1678;DHT22;6034;46.864;15.216;2022-12-10T08:13:35;4.30;99.90
1678;DHT22;6034;46.864;15.216;2022-12-10T08:16:02;4.30;99.90
1678;DHT22;6034;46.864;15.216;2022-12-10T08:18:29;4.30;99.90
1678;DHT22;6034;46.864;15.216;2022-12-10T08:20:56;4.30;99.90
1678;DHT22;6034;46.864;15.216;2022-12-10T08:23:23;4.30;99.90
1678;DHT22;6034;46.864;15.216;2022-12-10T08:25:52;4.30;99.90
1678;DHT22;6034;46.864;15.216;2022-12-10T08:28:19;4.30;99.90
1678;DHT22;6034;46.864;15.216;2022-12-10T08:30:46;4.30;99.90
1678;DHT22;6034;46.864;15.216;2022-12-10T08:33:13;4.30;99.90
1678;DHT22;6034;46.864;15.216;2022-12-10T08:35:40;4.30;99.90
1678;DHT22;6034;46.864;15.216;2022-12-10T08:38:07;4.30;99.90
1678;DHT22;6034;46.864;15.216;2022-12-10T08:40:37;4.40;99.90
1678;DHT22;6034;46.864;15.216;2022-12-10T08:43:06;4.30;99.90
1678;DHT22;6034;46.864;15.216;2022-12-10T08:45:33;4.30;99.90
1678;DHT22;6034;46.864;15.216;2022-12-10T08:48:00;4.40;99.90
1678;DHT22;6034;46.864;15.216;2022-12-10T08:50:27;4.40;99.90
1678;DHT22;6034;46.864;15.216;2022-12-10T08:52:54;4.40;99.90
1678;DHT22;6034;46.864;15.216;2022-12-10T08:55:21;4.40;99.90
1678;DHT22;6034;46.864;15.216;2022-12-10T08:57:48;4.30;99.90
1678;DHT22;6034;46.864;15.216;2022-12-10T09:00:17;4.30;99.90
1678;DHT22;6034;46.864;15.216;2022-12-10T09:02:44;4.30;99.90
1678;DHT22;6034;46.864;15.216;2022-12-10T09:05:11;4.10;99.90
1678;DHT22;6034;46.864;15.216;2022-12-10T09:07:38;4.10;99.90
1678;DHT22;6034;46.864;15.216;2022-12-10T09:10:05;4.10;99.90
1678;DHT22;6034;46.864;15.216;2022-12-10T09:12:32;4.30;99.90
1678;DHT22;6034;46.864;15.216;2022-12-10T09:15:00;4.30;99.90
1678;DHT22;6034;46.864;15.216;2022-12-10T09:17:28;4.30;99.90
1678;DHT22;6034;46.864;15.216;2022-12-10T09:19:55;4.30;99.90
1678;DHT22;6034;46.864;15.216;2022-12-10T09:22:22;4.30;99.90
1678;DHT22;6034;46.864;15.216;2022-12-10T09:24:49;4.30;99.90
1678;DHT22;6034;46.864;15.216;2022-12-10T09:27:16;4.10;99.90
1678;DHT22;6034;46.864;15.216;2022-12-10T09:29:43;3.90;99.90
1678;DHT22;6034;46.864;15.216;2022-12-10T09:32:10;3.80;99.90
1678;DHT22;6034;46.864;15.216;2022-12-10T09:34:39;3.80;99.90
1678;DHT22;6034;46.864;15.216;2022-12-10T09:37:06;4.00;99.90
1678;DHT22;6034;46.864;15.216;2022-12-10T09:39:33;4.10;99.90
1678;DHT22;6034;46.864;15.216;2022-12-10T09:42:10;4.20;99.90
1678;DHT22;6034;46.864;15.216;2022-12-10T09:44:46;4.30;99.90
1678;DHT22;6034;46.864;15.216;2022-12-10T09:47:15;4.30;99.90
1678;DHT22;6034;46.864;15.216;2022-12-10T09:49:48;4.40;99.90
1678;DHT22;6034;46.864;15.216;2022-12-10T09:52:18;4.40;99.90
1678;DHT22;6034;46.864;15.216;2022-12-10T09:54:48;4.30;99.90
1678;DHT22;6034;46.864;15.216;2022-12-10T09:57:17;4.20;99.90
1678;DHT22;6034;46.864;15.216;2022-12-10T09:59:46;4.00;99.90
1678;DHT22;6034;46.864;15.216;2022-12-10T10:02:18;4.00;99.90
1678;DHT22;6034;46.864;15.216;2022-12-10T10:04:48;3.90;99.90
1678;DHT22;6034;46.864;15.216;2022-12-10T10:07:17;4.00;99.90
1678;DHT22;6034;46.864;15.216;2022-12-10T10:09:45;4.00;99.90
1678;DHT22;6034;46.864;15.216;2022-12-10T10:12:13;4.10;99.90
1678;DHT22;6034;46.864;15.216;2022-12-10T10:14:40;4.00;99.90
1678;DHT22;6034;46.864;15.216;2022-12-10T10:17:09;3.90;99.90
1678;DHT22;6034;46.864;15.216;2022-12-10T10:19:37;3.70;99.90
1678;DHT22;6034;46.864;15.216;2022-12-10T10:22:09;3.80;99.90
1678;DHT22;6034;46.864;15.216;2022-12-10T10:24:37;3.90;99.90
1678;DHT22;6034;46.864;15.216;2022-12-10T10:27:10;4.00;99.90
1678;DHT22;6034;46.864;15.216;2022-12-10T10:29:38;3.80;99.90
1678;DHT22;6034;46.864;15.216;2022-12-10T10:32:13;3.70;99.90
1678;DHT22;6034;46.864;15.216;2022-12-10T10:34:40;3.70;99.90
1678;DHT22;6034;46.864;15.216;2022-12-10T10:37:12;3.70;99.90
1678;DHT22;6034;46.864;15.216;2022-12-10T10:39:46;3.60;99.90
1678;DHT22;6034;46.864;15.216;2022-12-10T10:42:14;3.60;99.90
1678;DHT22;6034;46.864;15.216;2022-12-10T10:44:48;3.60;99.90
1678;DHT22;6034;46.864;15.216;2022-12-10T10:47:25;3.50;99.90
1678;DHT22;6034;46.864;15.216;2022-12-10T10:49:53;3.70;99.90
1678;DHT22;6034;46.864;15.216;2022-12-10T10:52:21;3.80;99.90
1678;DHT22;6034;46.864;15.216;2022-12-10T10:54:48;3.90;99.90
1678;DHT22;6034;46.864;15.216;2022-12-10T10:57:17;4.00;99.90
1678;DHT22;6034;46.864;15.216;2022-12-10T10:59:47;4.00;99.90
1678;DHT22;6034;46.864;15.216;2022-12-10T11:02:29;3.90;99.90
1678;DHT22;6034;46.864;15.216;2022-12-10T11:04:56;3.90;99.90
1678;DHT22;6034;46.864;15.216;2022-12-10T11:07:33;4.10;99.90
1678;DHT22;6034;46.864;15.216;2022-12-10T11:10:00;3.80;99.90
1678;DHT22;6034;46.864;15.216;2022-12-10T11:12:29;3.90;99.90
1678;DHT22;6034;46.864;15.216;2022-12-10T11:14:57;3.80;99.90
1678;DHT22;6034;46.864;15.216;2022-12-10T11:17:25;3.80;99.90
1678;DHT22;6034;46.864;15.216;2022-12-10T11:19:54;3.80;99.90
1678;DHT22;6034;46.864;15.216;2022-12-10T11:22:22;2.10;99.90
1678;DHT22;6034;46.864;15.216;2022-12-10T11:24:51;3.90;99.90
1678;DHT22;6034;46.864;15.216;2022-12-10T11:27:20;4.00;99.90
1678;DHT22;6034;46.864;15.216;2022-12-10T11:29:53;3.90;99.90
1678;DHT22;6034;46.864;15.216;2022-12-10T11:32:35;3.80;99.90
1678;DHT22;6034;46.864;15.216;2022-12-10T11:35:09;4.00;99.90
1678;DHT22;6034;46.864;15.216;2022-12-10T11:37:37;4.00;99.90
1678;DHT22;6034;46.864;15.216;2022-12-10T11:42:56;4.10;99.90
1678;DHT22;6034;46.864;15.216;2022-12-10T11:45:27;4.10;99.90
1678;DHT22;6034;46.864;15.216;2022-12-10T11:48:03;4.10;99.90
1678;DHT22;6034;46.864;15.216;2022-12-10T11:50:34;4.10;99.90
1678;DHT22;6034;46.864;15.216;2022-12-10T11:53:10;4.10;99.90
1678;DHT22;6034;46.864;15.216;2022-12-10T11:55:39;4.10;99.90
1678;DHT22;6034;46.864;15.216;2022-12-10T11:58:19;4.20;99.90
1678;DHT22;6034;46.864;15.216;2022-12-10T12:00:51;4.20;99.90
1678;DHT22;6034;46.864;15.216;2022-12-10T12:06:07;4.20;99.90
1678;DHT22;6034;46.864;15.216;2022-12-10T12:08:39;4.20;99.90
1678;DHT22;6034;46.864;15.216;2022-12-10T12:11:14;4.30;99.90
1678;DHT22;6034;46.864;15.216;2022-12-10T12:13:48;4.30;99.90
1678;DHT22;6034;46.864;15.216;2022-12-10T12:16:18;4.30;99.90
1678;DHT22;6034;46.864;15.216;2022-12-10T12:18:49;4.30;99.90
1678;DHT22;6034;46.864;15.216;2022-12-10T12:21:18;4.30;99.90
1678;DHT22;6034;46.864;15.216;2022-12-10T12:23:49;4.30;99.90
1678;DHT22;6034;46.864;15.216;2022-12-10T12:26:19;4.20;99.90
1678;DHT22;6034;46.864;15.216;2022-12-10T12:28:52;4.30;99.90
1678;DHT22;6034;46.864;15.216;2022-12-10T12:31:20;4.30;99.90
1678;DHT22;6034;46.864;15.216;2022-12-10T12:33:50;4.30;99.90
1678;DHT22;6034;46.864;15.216;2022-12-10T12:36:19;4.30;99.90
1678;DHT22;6034;46.864;15.216;2022-12-10T12:38:52;4.30;99.90
1678;DHT22;6034;46.864;15.216;2022-12-10T12:41:24;4.30;99.90
1678;DHT22;6034;46.864;15.216;2022-12-10T12:43:55;4.40;99.90
1678;DHT22;6034;46.864;15.216;2022-12-10T12:46:26;4.40;99.90
1678;DHT22;6034;46.864;15.216;2022-12-10T12:48:55;4.40;99.90
1678;DHT22;6034;46.864;15.216;2022-12-10T12:51:25;4.40;99.90
1678;DHT22;6034;46.864;15.216;2022-12-10T12:53:53;4.40;99.90
1678;DHT22;6034;46.864;15.216;2022-12-10T12:56:22;4.40;99.90
1678;DHT22;6034;46.864;15.216;2022-12-10T12:58:58;4.40;99.90
1678;DHT22;6034;46.864;15.216;2022-12-10T13:01:28;4.50;99.90
1678;DHT22;6034;46.864;15.216;2022-12-10T13:03:58;4.50;99.90
1678;DHT22;6034;46.864;15.216;2022-12-10T13:06:25;4.40;99.90
1678;DHT22;6034;46.864;15.216;2022-12-10T13:08:57;4.40;99.90
1678;DHT22;6034;46.864;15.216;2022-12-10T13:11:30;4.30;99.90
1678;DHT22;6034;46.864;15.216;2022-12-10T13:16:58;4.30;99.90
1678;DHT22;6034;46.864;15.216;2022-12-10T13:19:28;4.20;99.90
1678;DHT22;6034;46.864;15.216;2022-12-10T13:22:03;4.30;99.90
1678;DHT22;6034;46.864;15.216;2022-12-10T13:24:44;4.30;99.90
1678;DHT22;6034;46.864;15.216;2022-12-10T13:27:15;4.30;99.90
1678;DHT22;6034;46.864;15.216;2022-12-10T13:29:44;4.20;99.90
1678;DHT22;6034;46.864;15.216;2022-12-10T13:32:16;4.30;99.90
1678;DHT22;6034;46.864;15.216;2022-12-10T13:34:44;4.20;99.90
1678;DHT22;6034;46.864;15.216;2022-12-10T13:37:18;4.20;99.90
1678;DHT22;6034;46.864;15.216;2022-12-10T13:39:58;4.20;99.90
1678;DHT22;6034;46.864;15.216;2022-12-10T13:42:28;4.10;99.90
1678;DHT22;6034;46.864;15.216;2022-12-10T13:45:26;4.20;99.90
1678;DHT22;6034;46.864;15.216;2022-12-10T13:48:15;4.10;99.90
1678;DHT22;6034;46.864;15.216;2022-12-10T13:50:42;4.10;99.90
1678;DHT22;6034;46.864;15.216;2022-12-10T13:53:13;4.20;99.90
1678;DHT22;6034;46.864;15.216;2022-12-10T13:55:43;4.20;99.90
1678;DHT22;6034;46.864;15.216;2022-12-10T13:58:23;4.20;99.90
1678;DHT22;6034;46.864;15.216;2022-12-10T14:00:54;4.10;99.90
1678;DHT22;6034;46.864;15.216;2022-12-10T14:06:14;4.10;99.90
1678;DHT22;6034;46.864;15.216;2022-12-10T14:08:44;4.00;99.90
1678;DHT22;6034;46.864;15.216;2022-12-10T14:11:15;4.10;99.90
1678;DHT22;6034;46.864;15.216;2022-12-10T14:13:47;4.10;99.90
1678;DHT22;6034;46.864;15.216;2022-12-10T14:16:14;4.00;99.90
1678;DHT22;6034;46.864;15.216;2022-12-10T14:18:42;3.90;99.90
1678;DHT22;6034;46.864;15.216;2022-12-10T14:21:10;3.90;99.90
1678;DHT22;6034;46.864;15.216;2022-12-10T14:23:43;3.90;99.90
1678;DHT22;6034;46.864;15.216;2022-12-10T14:26:11;3.90;99.90
1678;DHT22;6034;46.864;15.216;2022-12-10T14:28:39;3.90;99.90
1678;DHT22;6034;46.864;15.216;2022-12-10T14:31:10;3.90;99.90
1678;DHT22;6034;46.864;15.216;2022-12-10T14:33:39;3.80;99.90
1678;DHT22;6034;46.864;15.216;2022-12-10T14:36:06;3.80;99.90
1678;DHT22;6034;46.864;15.216;2022-12-10T14:38:33;3.70;99.90
1678;DHT22;6034;46.864;15.216;2022-12-10T14:41:02;3.70;99.90
1678;DHT22;6034;46.864;15.216;2022-12-10T14:43:31;3.80;99.90
1678;DHT22;6034;46.864;15.216;2022-12-10T14:46:00;3.70;99.90
1678;DHT22;6034;46.864;15.216;2022-12-10T14:48:28;3.70;99.90
1678;DHT22;6034;46.864;15.216;2022-12-10T14:50:56;3.60;99.90
1678;DHT22;6034;46.864;15.216;2022-12-10T14:53:30;3.60;99.90
1678;DHT22;6034;46.864;15.216;2022-12-10T14:55:58;3.60;99.90
1678;DHT22;6034;46.864;15.216;2022-12-10T14:58:29;3.60;99.90
1678;DHT22;6034;46.864;15.216;2022-12-10T15:00:58;3.40;99.90
1678;DHT22;6034;46.864;15.216;2022-12-10T15:03:27;3.40;99.90
1678;DHT22;6034;46.864;15.216;2022-12-10T15:05:55;3.50;99.90
1678;DHT22;6034;46.864;15.216;2022-12-10T15:08:23;3.50;99.90
1678;DHT22;6034;46.864;15.216;2022-12-10T15:10:52;3.40;99.90
1678;DHT22;6034;46.864;15.216;2022-12-10T15:13:22;3.40;99.90
1678;DHT22;6034;46.864;15.216;2022-12-10T15:15:52;3.40;99.90
1678;DHT22;6034;46.864;15.216;2022-12-10T15:18:20;3.30;99.90
1678;DHT22;6034;46.864;15.216;2022-12-10T15:20:48;3.30;99.90
1678;DHT22;6034;46.864;15.216;2022-12-10T15:23:19;3.20;99.90
1678;DHT22;6034;46.864;15.216;2022-12-10T15:25:49;3.30;99.90
1678;DHT22;6034;46.864;15.216;2022-12-10T15:28:24;3.30;99.90
1678;DHT22;6034;46.864;15.216;2022-12-10T15:30:56;3.30;99.90
1678;DHT22;6034;46.864;15.216;2022-12-10T15:33:28;3.30;99.90
1678;DHT22;6034;46.864;15.216;2022-12-10T15:35:57;3.30;99.90
1678;DHT22;6034;46.864;15.216;2022-12-10T15:38:25;3.20;99.90
1678;DHT22;6034;46.864;15.216;2022-12-10T15:40:56;3.20;99.90
1678;DHT22;6034;46.864;15.216;2022-12-10T15:43:25;3.10;99.90
1678;DHT22;6034;46.864;15.216;2022-12-10T15:45:56;3.10;99.90
1678;DHT22;6034;46.864;15.216;2022-12-10T15:48:26;3.10;99.90
1678;DHT22;6034;46.864;15.216;2022-12-10T15:50:54;3.10;99.90
1678;DHT22;6034;46.864;15.216;2022-12-10T15:53:26;3.10;99.90
1678;DHT22;6034;46.864;15.216;2022-12-10T15:55:55;3.10;99.90
1678;DHT22;6034;46.864;15.216;2022-12-10T15:58:26;3.10;99.90
1678;DHT22;6034;46.864;15.216;2022-12-10T16:00:53;3.10;99.90
1678;DHT22;6034;46.864;15.216;2022-12-10T16:03:22;3.10;99.90
1678;DHT22;6034;46.864;15.216;2022-12-10T16:05:52;3.10;99.90
1678;DHT22;6034;46.864;15.216;2022-12-10T16:08:20;3.00;99.90
1678;DHT22;6034;46.864;15.216;2022-12-10T16:10:48;2.90;99.90
1678;DHT22;6034;46.864;15.216;2022-12-10T16:13:17;2.90;99.90
1678;DHT22;6034;46.864;15.216;2022-12-10T16:15:46;2.90;99.90
1678;DHT22;6034;46.864;15.216;2022-12-10T16:18:14;2.90;99.90
1678;DHT22;6034;46.864;15.216;2022-12-10T16:20:43;2.90;99.90
1678;DHT22;6034;46.864;15.216;2022-12-10T16:23:11;3.00;99.90
1678;DHT22;6034;46.864;15.216;2022-12-10T16:25:40;3.00;99.90
1678;DHT22;6034;46.864;15.216;2022-12-10T16:28:14;3.00;99.90
1678;DHT22;6034;46.864;15.216;2022-12-10T16:30:43;2.90;99.90
1678;DHT22;6034;46.864;15.216;2022-12-10T16:33:11;2.80;99.90
1678;DHT22;6034;46.864;15.216;2022-12-10T16:35:40;2.80;99.90
1678;DHT22;6034;46.864;15.216;2022-12-10T16:38:09;2.80;99.90
1678;DHT22;6034;46.864;15.216;2022-12-10T16:40:40;2.80;99.90
1678;DHT22;6034;46.864;15.216;2022-12-10T16:43:10;2.80;99.90
1678;DHT22;6034;46.864;15.216;2022-12-10T16:45:38;2.80;99.90
1678;DHT22;6034;46.864;15.216;2022-12-10T16:48:07;2.80;99.90
1678;DHT22;6034;46.864;15.216;2022-12-10T16:50:36;2.80;99.90
1678;DHT22;6034;46.864;15.216;2022-12-10T16:53:03;2.80;99.90
1678;DHT22;6034;46.864;15.216;2022-12-10T16:55:35;2.80;99.90
1678;DHT22;6034;46.864;15.216;2022-12-10T16:58:05;2.80;99.90
1678;DHT22;6034;46.864;15.216;2022-12-10T17:00:35;2.80;99.90
1678;DHT22;6034;46.864;15.216;2022-12-10T17:03:02;2.80;99.90
1678;DHT22;6034;46.864;15.216;2022-12-10T17:05:33;2.80;99.90
1678;DHT22;6034;46.864;15.216;2022-12-10T17:08:02;2.70;99.90
1678;DHT22;6034;46.864;15.216;2022-12-10T17:10:29;2.70;99.90
1678;DHT22;6034;46.864;15.216;2022-12-10T17:13:15;2.80;99.90
1678;DHT22;6034;46.864;15.216;2022-12-10T17:15:43;2.80;99.90
1678;DHT22;6034;46.864;15.216;2022-12-10T17:18:11;2.80;99.90
1678;DHT22;6034;46.864;15.216;2022-12-10T17:20:39;2.80;99.90
1678;DHT22;6034;46.864;15.216;2022-12-10T17:23:07;2.70;99.90
1678;DHT22;6034;46.864;15.216;2022-12-10T17:25:35;2.70;99.90
1678;DHT22;6034;46.864;15.216;2022-12-10T17:28:02;2.70;99.90
1678;DHT22;6034;46.864;15.216;2022-12-10T17:30:31;2.70;99.90
1678;DHT22;6034;46.864;15.216;2022-12-10T17:33:00;2.80;99.90
1678;DHT22;6034;46.864;15.216;2022-12-10T17:35:28;2.80;99.90
1678;DHT22;6034;46.864;15.216;2022-12-10T17:37:55;2.70;99.90
1678;DHT22;6034;46.864;15.216;2022-12-10T17:40:22;2.70;99.90
1678;DHT22;6034;46.864;15.216;2022-12-10T17:42:51;2.70;99.90
1678;DHT22;6034;46.864;15.216;2022-12-10T17:45:19;2.70;99.90
1678;DHT22;6034;46.864;15.216;2022-12-10T17:47:48;2.70;99.90
1678;DHT22;6034;46.864;15.216;2022-12-10T17:50:18;2.70;99.90
1678;DHT22;6034;46.864;15.216;2022-12-10T17:52:50;2.70;99.90
1678;DHT22;6034;46.864;15.216;2022-12-10T17:55:18;2.70;99.90
1678;DHT22;6034;46.864;15.216;2022-12-10T17:57:46;2.70;99.90
1678;DHT22;6034;46.864;15.216;2022-12-10T18:00:14;2.70;99.90
1678;DHT22;6034;46.864;15.216;2022-12-10T18:02:42;2.70;99.90
1678;DHT22;6034;46.864;15.216;2022-12-10T18:05:11;2.70;99.90
1678;DHT22;6034;46.864;15.216;2022-12-10T18:07:38;2.70;99.90
1678;DHT22;6034;46.864;15.216;2022-12-10T18:10:06;2.70;99.90
1678;DHT22;6034;46.864;15.216;2022-12-10T18:12:33;2.70;99.90
1678;DHT22;6034;46.864;15.216;2022-12-10T18:15:00;2.60;99.90
1678;DHT22;6034;46.864;15.216;2022-12-10T18:17:27;2.60;99.90
1678;DHT22;6034;46.864;15.216;2022-12-10T18:19:56;2.60;99.90
1678;DHT22;6034;46.864;15.216;2022-12-10T18:22:25;2.60;99.90
1678;DHT22;6034;46.864;15.216;2022-12-10T18:24:54;2.60;99.90
1678;DHT22;6034;46.864;15.216;2022-12-10T18:27:24;2.60;99.90
1678;DHT22;6034;46.864;15.216;2022-12-10T18:29:51;2.70;99.90
1678;DHT22;6034;46.864;15.216;2022-12-10T18:32:18;2.60;99.90
1678;DHT22;6034;46.864;15.216;2022-12-10T18:34:45;2.60;99.90
1678;DHT22;6034;46.864;15.216;2022-12-10T18:37:12;2.60;99.90
1678;DHT22;6034;46.864;15.216;2022-12-10T18:39:41;2.60;99.90
1678;DHT22;6034;46.864;15.216;2022-12-10T18:42:09;2.60;99.90
1678;DHT22;6034;46.864;15.216;2022-12-10T18:44:37;2.60;99.90
1678;DHT22;6034;46.864;15.216;2022-12-10T18:47:08;2.60;99.90
1678;DHT22;6034;46.864;15.216;2022-12-10T18:49:35;2.60;99.90
1678;DHT22;6034;46.864;15.216;2022-12-10T18:52:04;2.60;99.90
1678;DHT22;6034;46.864;15.216;2022-12-10T18:54:31;2.60;99.90
1678;DHT22;6034;46.864;15.216;2022-12-10T18:57:00;2.60;99.90
1678;DHT22;6034;46.864;15.216;2022-12-10T18:59:29;2.60;99.90
1678;DHT22;6034;46.864;15.216;2022-12-10T19:01:57;2.60;99.90
1678;DHT22;6034;46.864;15.216;2022-12-10T19:04:25;2.60;99.90
1678;DHT22;6034;46.864;15.216;2022-12-10T19:06:53;2.60;99.90
1678;DHT22;6034;46.864;15.216;2022-12-10T19:09:20;2.60;99.90
1678;DHT22;6034;46.864;15.216;2022-12-10T19:11:47;2.60;99.90
1678;DHT22;6034;46.864;15.216;2022-12-10T19:14:20;2.60;99.90
1678;DHT22;6034;46.864;15.216;2022-12-10T19:16:48;2.50;99.90
1678;DHT22;6034;46.864;15.216;2022-12-10T19:19:16;2.70;99.90
1678;DHT22;6034;46.864;15.216;2022-12-10T19:21:43;2.60;99.90
1678;DHT22;6034;46.864;15.216;2022-12-10T19:24:12;2.60;99.90
1678;DHT22;6034;46.864;15.216;2022-12-10T19:26:42;2.60;99.90
1678;DHT22;6034;46.864;15.216;2022-12-10T19:29:11;2.60;99.90
1678;DHT22;6034;46.864;15.216;2022-12-10T19:31:40;2.60;99.90
1678;DHT22;6034;46.864;15.216;2022-12-10T19:34:11;2.40;99.90
1678;DHT22;6034;46.864;15.216;2022-12-10T19:36:41;2.50;99.90
1678;DHT22;6034;46.864;15.216;2022-12-10T19:39:13;2.50;99.90
1678;DHT22;6034;46.864;15.216;2022-12-10T19:41:41;2.50;99.90
1678;DHT22;6034;46.864;15.216;2022-12-10T19:44:09;2.50;99.90
1678;DHT22;6034;46.864;15.216;2022-12-10T19:46:36;2.40;99.90
1678;DHT22;6034;46.864;15.216;2022-12-10T19:49:05;2.50;99.90
1678;DHT22;6034;46.864;15.216;2022-12-10T19:51:33;2.50;99.90
1678;DHT22;6034;46.864;15.216;2022-12-10T19:54:00;2.50;99.90
1678;DHT22;6034;46.864;15.216;2022-12-10T19:56:29;2.60;99.90
1678;DHT22;6034;46.864;15.216;2022-12-10T19:58:57;2.50;99.90
1678;DHT22;6034;46.864;15.216;2022-12-10T20:01:26;2.60;99.90
1678;DHT22;6034;46.864;15.216;2022-12-10T20:03:55;2.50;99.90
1678;DHT22;6034;46.864;15.216;2022-12-10T20:06:27;2.50;99.90
1678;DHT22;6034;46.864;15.216;2022-12-10T20:08:57;2.50;99.90
1678;DHT22;6034;46.864;15.216;2022-12-10T20:11:25;2.60;99.90
1678;DHT22;6034;46.864;15.216;2022-12-10T20:13:53;2.60;99.90
1678;DHT22;6034;46.864;15.216;2022-12-10T20:16:21;2.60;99.90
1678;DHT22;6034;46.864;15.216;2022-12-10T20:18:50;2.60;99.90
1678;DHT22;6034;46.864;15.216;2022-12-10T20:21:18;2.50;99.90
1678;DHT22;6034;46.864;15.216;2022-12-10T20:23:47;2.50;99.90
1678;DHT22;6034;46.864;15.216;2022-12-10T20:26:16;2.50;99.90
1678;DHT22;6034;46.864;15.216;2022-12-10T20:28:47;2.50;99.90
1678;DHT22;6034;46.864;15.216;2022-12-10T20:31:14;2.60;99.90
1678;DHT22;6034;46.864;15.216;2022-12-10T20:33:43;2.60;99.90
1678;DHT22;6034;46.864;15.216;2022-12-10T20:36:12;2.60;99.90
1678;DHT22;6034;46.864;15.216;2022-12-10T20:38:41;2.60;99.90
1678;DHT22;6034;46.864;15.216;2022-12-10T20:41:11;2.70;99.90
1678;DHT22;6034;46.864;15.216;2022-12-10T20:43:39;2.70;99.90
1678;DHT22;6034;46.864;15.216;2022-12-10T20:46:11;2.70;99.90
1678;DHT22;6034;46.864;15.216;2022-12-10T20:48:40;2.70;99.90
1678;DHT22;6034;46.864;15.216;2022-12-10T20:51:08;2.70;99.90
1678;DHT22;6034;46.864;15.216;2022-12-10T20:53:38;2.70;99.90
1678;DHT22;6034;46.864;15.216;2022-12-10T20:56:09;2.70;99.90
1678;DHT22;6034;46.864;15.216;2022-12-10T20:58:39;2.70;99.90
1678;DHT22;6034;46.864;15.216;2022-12-10T21:01:07;2.70;99.90
1678;DHT22;6034;46.864;15.216;2022-12-10T21:03:35;2.70;99.90
1678;DHT22;6034;46.864;15.216;2022-12-10T21:06:04;2.70;99.90
1678;DHT22;6034;46.864;15.216;2022-12-10T21:08:32;2.80;99.90
1678;DHT22;6034;46.864;15.216;2022-12-10T21:11:02;2.70;99.90
1678;DHT22;6034;46.864;15.216;2022-12-10T21:13:30;2.70;99.90
1678;DHT22;6034;46.864;15.216;2022-12-10T21:16:00;2.80;99.90
1678;DHT22;6034;46.864;15.216;2022-12-10T21:18:30;2.80;99.90
1678;DHT22;6034;46.864;15.216;2022-12-10T21:20:58;2.80;99.90
1678;DHT22;6034;46.864;15.216;2022-12-10T21:23:27;2.70;99.90
1678;DHT22;6034;46.864;15.216;2022-12-10T21:25:58;2.80;99.90
1678;DHT22;6034;46.864;15.216;2022-12-10T21:28:25;2.80;99.90
1678;DHT22;6034;46.864;15.216;2022-12-10T21:30:54;2.70;99.90
1678;DHT22;6034;46.864;15.216;2022-12-10T21:33:24;2.80;99.90
1678;DHT22;6034;46.864;15.216;2022-12-10T21:35:52;2.70;99.90
1678;DHT22;6034;46.864;15.216;2022-12-10T21:38:28;2.80;99.90
1678;DHT22;6034;46.864;15.216;2022-12-10T21:40:55;2.80;99.90
1678;DHT22;6034;46.864;15.216;2022-12-10T21:43:23;2.80;99.90
1678;DHT22;6034;46.864;15.216;2022-12-10T21:45:52;2.80;99.90
1678;DHT22;6034;46.864;15.216;2022-12-10T21:48:21;2.80;99.90
1678;DHT22;6034;46.864;15.216;2022-12-10T21:50:56;2.80;99.90
1678;DHT22;6034;46.864;15.216;2022-12-10T21:53:24;2.80;99.90
1678;DHT22;6034;46.864;15.216;2022-12-10T21:55:52;2.70;99.90
1678;DHT22;6034;46.864;15.216;2022-12-10T21:58:19;2.70;99.90
1678;DHT22;6034;46.864;15.216;2022-12-10T22:00:46;2.80;99.90
1678;DHT22;6034;46.864;15.216;2022-12-10T22:03:19;2.60;99.90
1678;DHT22;6034;46.864;15.216;2022-12-10T22:05:46;2.60;99.90
1678;DHT22;6034;46.864;15.216;2022-12-10T22:08:15;2.70;99.90
1678;DHT22;6034;46.864;15.216;2022-12-10T22:10:42;2.70;99.90
1678;DHT22;6034;46.864;15.216;2022-12-10T22:13:09;2.70;99.90
1678;DHT22;6034;46.864;15.216;2022-12-10T22:15:38;2.60;99.90
1678;DHT22;6034;46.864;15.216;2022-12-10T22:18:05;2.50;99.90
1678;DHT22;6034;46.864;15.216;2022-12-10T22:20:32;2.50;99.90
1678;DHT22;6034;46.864;15.216;2022-12-10T22:23:00;2.60;99.90
1678;DHT22;6034;46.864;15.216;2022-12-10T22:25:29;2.60;99.90
1678;DHT22;6034;46.864;15.216;2022-12-10T22:27:56;2.60;99.90
1678;DHT22;6034;46.864;15.216;2022-12-10T22:30:23;2.70;99.90
1678;DHT22;6034;46.864;15.216;2022-12-10T22:32:50;2.60;99.90
1678;DHT22;6034;46.864;15.216;2022-12-10T22:35:17;2.60;99.90
1678;DHT22;6034;46.864;15.216;2022-12-10T22:37:45;2.60;99.90
1678;DHT22;6034;46.864;15.216;2022-12-10T22:40:12;2.60;99.90
1678;DHT22;6034;46.864;15.216;2022-12-10T22:42:41;2.60;99.90
1678;DHT22;6034;46.864;15.216;2022-12-10T22:45:08;2.70;99.90
1678;DHT22;6034;46.864;15.216;2022-12-10T22:47:36;2.70;99.90
1678;DHT22;6034;46.864;15.216;2022-12-10T22:50:03;2.60;99.90
1678;DHT22;6034;46.864;15.216;2022-12-10T22:52:30;2.60;99.90
1678;DHT22;6034;46.864;15.216;2022-12-10T22:54:57;2.60;99.90
1678;DHT22;6034;46.864;15.216;2022-12-10T22:57:24;2.70;99.90
1678;DHT22;6034;46.864;15.216;2022-12-10T22:59:54;2.70;99.90
1678;DHT22;6034;46.864;15.216;2022-12-10T23:02:21;2.70;99.90
1678;DHT22;6034;46.864;15.216;2022-12-10T23:04:48;2.70;99.90
1678;DHT22;6034;46.864;15.216;2022-12-10T23:07:15;2.70;99.90
1678;DHT22;6034;46.864;15.216;2022-12-10T23:09:42;2.60;99.90
1678;DHT22;6034;46.864;15.216;2022-12-10T23:12:09;2.60;99.90
1678;DHT22;6034;46.864;15.216;2022-12-10T23:14:55;2.40;99.90
1678;DHT22;6034;46.864;15.216;2022-12-10T23:17:22;2.60;99.90
1678;DHT22;6034;46.864;15.216;2022-12-10T23:19:49;2.70;99.90
1678;DHT22;6034;46.864;15.216;2022-12-10T23:22:16;2.50;99.90
1678;DHT22;6034;46.864;15.216;2022-12-10T23:24:43;2.60;99.90
1678;DHT22;6034;46.864;15.216;2022-12-10T23:27:10;2.60;99.90
1678;DHT22;6034;46.864;15.216;2022-12-10T23:29:37;2.40;99.90
1678;DHT22;6034;46.864;15.216;2022-12-10T23:32:05;2.30;99.90
1678;DHT22;6034;46.864;15.216;2022-12-10T23:34:33;2.30;99.90
1678;DHT22;6034;46.864;15.216;2022-12-10T23:37:01;2.40;99.90
1678;DHT22;6034;46.864;15.216;2022-12-10T23:39:28;2.40;99.90
1678;DHT22;6034;46.864;15.216;2022-12-10T23:41:56;2.30;99.90